• Join FlightAware (Why Join?)
  • Login
  • US Flag GB Flag 
06:37 EST


 

Airport Tracker/Info


-or-


 

Live Flight TrackerFlight Track Log ✈ UCA4838 ✈ 05-May-2013 ✈ KALB - KEWR

Flight Track Log - Related Links

Times and Time Zones

All times are in EDT time to prevent confusion due to time zone crossing. See the UCA4838 flight status page for this flight to view local times or setup timezone preferences in your user account.

Time Position Orientation Groundspeed Altitude Reporting Facility
EDT Latitude Longitude Course Direction KTS MPH feet Rate Location/Type
09:07 42.7339 -73.8053 199° South 121 139 1,100  Level Boston Center
09:08 42.6942 -73.8242 199° South 165 190 2,300 1,140 Climbing Boston Center
09:09 42.6542 -73.8600 213° Southwest 183 211 3,600 1,320 Climbing Boston Center
09:10 42.6078 -73.8958 210° Southwest 185 213 5,000 1,260 Climbing Boston Center
09:11 42.5572 -73.9311 207° Southwest 206 237 6,200 1,200 Climbing Boston Center
09:12 42.5067 -73.9722 211° Southwest 215 247 7,500 1,140 Climbing Boston Center
09:13 42.4561 -74.0131 211° Southwest 220 253 8,600 1,020 Climbing Boston Center
09:14 42.4014 -74.0539 209° Southwest 237 273 9,800 540 Climbing Boston Center
09:16 42.3319 -74.1083 210° Southwest 237 273 9,900  Climbing Boston Center
09:17 42.2644 -74.1597 209° Southwest 251 289 9,900  Level Boston Center
09:18 42.2075 -74.2031 209° Southwest 251 289 9,900  Level Boston Center
09:19 42.1422 -74.2517 209° Southwest 251 289 9,900  Level Boston Center
09:20 42.0831 -74.2919 207° Southwest 256 295 9,900  Level Boston Center
09:21 42.0133 -74.3431 209° Southwest 256 295 10,000  Climbing Boston Center
09:22 41.9586 -74.3833 209° Southwest 256 295 10,000  Level Boston Center
09:23 41.8889 -74.4369 210° Southwest 256 295 10,000  Level Boston Center
09:24 41.8339 -74.4742 207° Southwest 256 295 10,000 -240 Level Boston Center
09:25 41.7664 -74.5247 209° Southwest 256 295 9,600 -900 Descending Boston Center
09:26 41.7036 -74.5367 188° South 251 289 8,300 -1,380 Descending Boston Center
09:27 41.6261 -74.5508 188° South 257 296 6,900 -1,080 Descending Boston Center
09:28 41.5656 -74.5628 188° South 257 296 6,200 -480 Descending Boston Center
09:29 41.4881 -74.5767 188° South 257 296 6,000 -60 Descending Boston Center
09:31 41.3167 -74.6333 194° South 260 299 6,000  Level New York TRACON
09:32 41.2333 -74.6500 189° South 262 302 6,000  Level New York TRACON
09:33 41.1667 -74.6667 191° South 252 290 6,000  Level New York TRACON
09:34 41.1000 -74.6667 180° South 254 292 6,000  Level New York TRACON
09:35 41.0333 -74.6667 180° South 250 288 6,000  Level New York TRACON
09:36 40.9667 -74.6667 180° South 252 290 6,000  Level New York TRACON
09:37 40.9000 -74.6500 169° South 250 288 6,000  Level New York TRACON
09:38 40.8167 -74.6333 171° South 251 289 6,000  Level New York TRACON
09:39 40.7500 -74.6167 169° South 251 289 6,000  Level New York TRACON
09:40 40.6833 -74.5833 159° South 246 283 6,000 -180 Level New York TRACON
09:41 40.6333 -74.5500 153° Southeast 251 289 5,700 -540 Descending New York TRACON
09:42 40.6000 -74.4833 123° Southeast 237 273 5,000 -900 Descending New York TRACON
09:43 40.5667 -74.4000 118° Southeast 225 259 4,000 -1,020 Descending New York TRACON
09:44 40.5500 -74.3333 108° East 212 244 3,000 -1,020 Descending New York TRACON
09:46 40.6159 -74.2454 41° Northeast  Level FlightAware Approximate
09:53 40.6833 -74.1667 41° Northeast  Level FlightAware Approximate
09:54 40.6925 -74.1687 41° Northeast  Level Estimated
09:55 40.6925 -74.1687 41° Northeast  Level Estimated
09:56 40.6925 -74.1687 41° Northeast  Level Estimated
09:57 40.6925 -74.1687 41° Northeast  Level Estimated